Time;durP1;ratioP1;P1;durP2;ratioP2;P2;SDS_P1;SDS_P2;PMS_P1;PMS_P2;Temp;Humidity;BMP_temperature;BMP_pressure;BME280_temperature;BME280_humidity;BME280_pressure;Samples;Min_cycle;Max_cycle;Signal;HPM_P1;HPM_P2
2021/06/11 00:02:48;;;;;;;14.80;6.60;;;20.70;99.90;;;;;;6452920;27;39976;-90
2021/06/11 00:06:01;;;;;;;14.60;6.65;;;20.60;99.90;;;;;;6452155;27;40631;-90
2021/06/11 00:09:07;;;;;;;19.62;6.65;;;20.60;99.90;;;;;;6453298;27;39937;-90
2021/06/11 00:12:34;;;;;;;12.10;6.43;;;20.60;99.90;;;;;;6453203;27;39863;-90
2021/06/11 00:15:44;;;;;;;16.25;6.55;;;20.70;99.90;;;;;;6451508;27;39555;-90
2021/06/11 00:19:21;;;;;;;14.27;5.95;;;20.70;99.90;;;;;;6453179;27;43370;-90
2021/06/11 00:23:12;;;;;;;16.10;6.60;;;20.70;99.90;;;;;;6453478;27;41574;-90
2021/06/11 00:51:03;;;;;;;12.15;5.57;;;20.60;99.90;;;;;;6245585;28;42190;-89
2021/06/11 01:02:20;;;;;;;11.75;5.70;;;20.50;99.90;;;;;;6286954;28;41779;-89
2021/06/11 01:09:21;;;;;;;10.18;4.93;;;20.50;99.90;;;;;;6426145;27;41387;-90
2021/06/11 01:12:28;;;;;;;9.00;5.22;;;20.40;99.90;;;;;;6426250;27;40984;-90
2021/06/11 01:15:50;;;;;;;10.45;5.45;;;20.50;99.90;;;;;;6426923;27;40097;-90
2021/06/11 01:19:06;;;;;;;10.45;5.20;;;20.50;99.90;;;;;;6426988;27;41593;-90
2021/06/11 01:22:20;;;;;;;8.27;5.30;;;20.60;99.90;;;;;;6426386;27;41449;-89
2021/06/11 01:25:33;;;;;;;15.82;5.35;;;20.60;99.90;;;;;;6426475;27;41504;-90
2021/06/11 01:28:49;;;;;;;16.25;5.65;;;20.70;99.90;;;;;;6439059;27;40722;-89
2021/06/11 01:31:54;;;;;;;9.93;5.15;;;20.70;99.90;;;;;;6453065;27;39578;-89
2021/06/11 01:38:35;;;;;;;13.75;4.93;;;20.80;99.90;;;;;;6448369;27;41677;-89
2021/06/11 01:41:49;;;;;;;12.10;5.60;;;20.70;99.90;;;;;;6452455;27;41834;-89
2021/06/11 01:48:46;;;;;;;10.25;5.78;;;20.60;99.90;;;;;;6447569;27;41603;-90
2021/06/11 01:52:15;;;;;;;10.75;5.68;;;20.50;99.90;;;;;;6451704;27;41077;-89
2021/06/11 01:55:26;;;;;;;13.02;5.37;;;20.50;99.90;;;;;;6452572;27;39619;-89
2021/06/11 01:59:27;;;;;;;;;;;;;;;;;;;;;
2021/06/11 02:06:05;;;;;;;11.70;5.43;;;20.60;99.90;;;;;;6448265;27;41876;-90
2021/06/11 02:09:17;;;;;;;14.05;5.60;;;20.50;99.90;;;;;;6454222;27;41222;-89
2021/06/11 02:12:24;;;;;;;12.55;6.18;;;20.60;99.90;;;;;;6453703;27;42051;-89
2021/06/11 02:15:48;;;;;;;13.27;5.75;;;20.60;99.90;;;;;;6452981;27;40856;-89
2021/06/11 02:19:05;;;;;;;11.70;5.57;;;20.70;99.90;;;;;;6454071;27;41440;-89
2021/06/11 02:22:14;;;;;;;13.18;5.45;;;20.60;99.90;;;;;;6454250;27;40133;-89
2021/06/11 02:25:34;;;;;;;10.93;5.30;;;20.60;99.90;;;;;;6454268;27;41020;-89
2021/06/11 02:28:39;;;;;;;9.68;5.70;;;20.60;99.90;;;;;;6452323;27;40934;-89
2021/06/11 02:31:49;;;;;;;10.55;5.60;;;20.50;99.90;;;;;;6454072;27;42011;-90
2021/06/11 02:38:38;;;;;;;13.75;5.82;;;20.50;99.90;;;;;;6451874;27;41459;-89
2021/06/11 02:42:10;;;;;;;12.55;5.75;;;20.50;99.90;;;;;;6453850;27;43483;-89
2021/06/11 02:45:23;;;;;;;11.85;5.12;;;20.50;99.90;;;;;;6453984;27;40533;-89
2021/06/11 02:48:30;;;;;;;10.18;5.62;;;20.50;99.90;;;;;;6454049;27;40128;-89
2021/06/11 02:51:39;;;;;;;13.32;6.07;;;20.50;99.90;;;;;;6454106;27;40549;-89
2021/06/11 02:54:53;;;;;;;13.27;5.95;;;20.40;99.90;;;;;;6453576;27;39660;-89
2021/06/11 02:58:11;;;;;;;9.05;5.57;;;20.30;99.90;;;;;;6453409;27;41481;-89
2021/06/11 03:01:20;;;;;;;11.00;5.95;;;20.30;99.90;;;;;;6453608;27;40179;-89
2021/06/11 03:04:34;;;;;;;14.57;6.15;;;20.40;99.90;;;;;;6453855;27;40310;-89
2021/06/11 03:07:57;;;;;;;9.75;5.93;;;20.40;99.90;;;;;;6453421;27;43444;-88
2021/06/11 03:11:27;;;;;;;11.10;5.72;;;20.30;99.90;;;;;;6453571;27;39718;-89
2021/06/11 03:15:03;;;;;;;10.38;6.25;;;20.20;99.90;;;;;;6453331;27;41805;-89
2021/06/11 03:18:33;;;;;;;11.77;5.62;;;20.30;99.90;;;;;;6453070;27;43448;-89
2021/06/11 03:21:40;;;;;;;10.43;5.55;;;20.30;99.90;;;;;;6439380;27;40633;-89
2021/06/11 03:24:53;;;;;;;15.40;6.30;;;20.30;99.90;;;;;;6453725;27;41178;-89
2021/06/11 03:28:12;;;;;;;12.25;6.78;;;20.20;99.90;;;;;;6452885;27;43306;-89
2021/06/11 03:31:20;;;;;;;16.00;9.63;;;20.10;99.90;;;;;;6451276;27;41340;-89
2021/06/11 03:34:40;;;;;;;17.83;8.52;;;20.50;99.90;;;;;;6452852;27;40796;-89
2021/06/11 03:41:16;;;;;;;11.50;7.57;;;20.10;99.90;;;;;;6451335;27;42336;-89
2021/06/11 03:44:33;;;;;;;15.73;7.78;;;20.10;99.90;;;;;;6453448;27;41383;-89
2021/06/11 03:51:25;;;;;;;13.35;7.20;;;19.80;99.90;;;;;;6430761;27;41745;-89
2021/06/11 03:54:41;;;;;;;14.50;7.90;;;19.80;99.90;;;;;;6452675;27;40830;-89
2021/06/11 03:58:31;;;;;;;12.75;7.97;;;19.80;99.90;;;;;;6452441;27;41902;-89
2021/06/11 04:01:42;;;;;;;13.62;7.93;;;19.90;99.90;;;;;;6452405;27;40296;-89
2021/06/11 04:04:54;;;;;;;13.40;8.32;;;20.00;99.90;;;;;;6453459;27;39888;-89
2021/06/11 04:11:47;;;;;;;15.82;8.27;;;19.80;99.90;;;;;;6450374;27;42302;-89
2021/06/11 04:15:37;;;;;;;;;;;;;;;;;;;;;
2021/06/11 04:26:22;;;;;;;15.05;7.80;;;19.90;99.90;;;;;;6446533;27;42457;-88
2021/06/11 04:29:33;;;;;;;16.67;8.25;;;20.00;99.90;;;;;;6451855;27;40743;-88
2021/06/11 04:32:48;;;;;;;11.82;7.43;;;19.80;99.90;;;;;;6453093;27;41989;-88
2021/06/11 04:35:54;;;;;;;14.43;7.43;;;19.80;99.90;;;;;;6452832;27;41281;-89
2021/06/11 04:39:04;;;;;;;15.77;7.35;;;19.90;99.90;;;;;;6452945;27;41389;-89
2021/06/11 04:42:10;;;;;;;13.18;7.65;;;19.90;99.90;;;;;;6452572;27;40512;-88
2021/06/11 04:45:16;;;;;;;12.05;6.07;;;19.80;99.90;;;;;;6451895;27;39989;-87
2021/06/11 04:48:29;;;;;;;16.40;7.10;;;19.90;99.90;;;;;;6452611;27;39958;-88
2021/06/11 04:51:31;;;;;;;13.30;6.75;;;20.00;99.90;;;;;;6452495;27;41255;-88
2021/06/11 04:54:36;;;;;;;14.95;9.23;;;20.00;99.90;;;;;;6451882;27;41560;-88
2021/06/11 04:57:47;;;;;;;14.05;8.05;;;19.90;99.90;;;;;;6452699;27;41115;-88
2021/06/11 05:00:52;;;;;;;10.63;6.80;;;20.00;99.90;;;;;;6452731;27;40067;-88
2021/06/11 05:04:03;;;;;;;9.27;6.35;;;20.00;99.90;;;;;;6452991;27;40592;-88
2021/06/11 05:07:31;;;;;;;12.80;6.40;;;20.00;99.90;;;;;;6452524;27;41341;-88
2021/06/11 05:19:07;;;;;;;9.80;5.78;;;19.80;99.90;;;;;;6271715;28;41574;-91
2021/06/11 06:02:50;;;;;;;9.10;4.95;;;20.10;99.90;;;;;;6246019;28;42214;-89
2021/06/11 12:06:18;;;;;;;6.00;3.30;;;29.80;99.90;;;;;;6270549;28;41994;-86
2021/06/11 12:10:25;;;;;;;;;;;;;;;;;;;;;
2021/06/11 12:13:28;;;;;;;13.73;9.73;;;29.90;99.90;;;;;;6443701;27;41213;-87
2021/06/11 12:29:20;;;;;;;5.65;2.17;;;32.20;99.90;;;;;;6473216;27;41773;-88
2021/06/11 12:32:53;;;;;;;24.10;17.58;;;32.00;99.90;;;;;;6478528;27;41933;-88
2021/06/11 12:36:17;;;;;;;20.15;15.02;;;31.70;99.90;;;;;;6471959;27;40652;-90
2021/06/11 12:39:29;;;;;;;28.80;18.27;;;31.30;99.90;;;;;;6478273;27;40409;-89
2021/06/11 12:42:38;;;;;;;37.92;24.40;;;30.90;99.90;;;;;;6477951;27;43477;-89
2021/06/11 12:45:44;;;;;;;12.07;6.62;;;30.60;99.90;;;;;;6477910;27;39276;-88
2021/06/11 12:48:56;;;;;;;9.65;7.43;;;30.50;99.90;;;;;;6477421;27;41637;-89
2021/06/11 12:51:58;;;;;;;7.37;5.68;;;30.40;99.90;;;;;;6478003;27;40415;-88
2021/06/11 12:55:21;;;;;;;6.45;3.15;;;30.50;99.90;;;;;;6477181;27;40758;-88
2021/06/11 12:58:35;;;;;;;6.18;2.85;;;30.70;99.90;;;;;;6478227;27;41208;-88
2021/06/11 13:01:56;;;;;;;7.62;4.70;;;30.80;99.90;;;;;;6477529;27;40845;-88
2021/06/11 13:05:05;;;;;;;13.23;5.07;;;31.00;99.90;;;;;;6478398;27;40775;-88
2021/06/11 13:08:15;;;;;;;11.05;8.20;;;31.20;99.90;;;;;;6478423;27;40279;-89
2021/06/11 13:15:27;;;;;;;3.35;1.80;;;31.90;99.90;;;;;;6459132;27;41708;-87
2021/06/11 13:18:41;;;;;;;8.70;6.10;;;31.90;99.90;;;;;;6477784;27;41286;-88
2021/06/11 13:21:43;;;;;;;12.20;7.45;;;32.40;99.90;;;;;;6478129;27;40779;-88
2021/06/11 13:24:47;;;;;;;4.82;3.05;;;32.60;99.90;;;;;;6477887;27;40212;-88
2021/06/11 13:28:15;;;;;;;3.75;1.92;;;32.40;99.90;;;;;;6477199;27;40230;-88
2021/06/11 13:31:38;;;;;;;3.03;1.75;;;32.20;99.90;;;;;;6475905;27;40157;-88
2021/06/11 13:34:51;;;;;;;2.17;1.67;;;32.30;99.90;;;;;;6477197;27;43575;-88
2021/06/11 13:38:34;;;;;;;3.75;1.70;;;32.20;99.90;;;;;;6476012;27;41960;-87
2021/06/11 13:41:49;;;;;;;1.73;1.42;;;32.20;99.90;;;;;;6477523;27;41898;-88
2021/06/11 13:44:59;;;;;;;9.35;3.87;;;32.20;99.90;;;;;;6477241;27;40668;-88
2021/06/11 13:48:08;;;;;;;7.18;3.58;;;31.90;99.90;;;;;;6477316;27;43642;-88
2021/06/11 13:51:13;;;;;;;5.18;2.08;;;31.60;99.90;;;;;;6476831;27;39938;-88
2021/06/11 13:54:16;;;;;;;1.67;1.48;;;31.30;99.90;;;;;;6477088;27;41725;-88
2021/06/11 13:57:33;;;;;;;3.87;1.92;;;31.20;99.90;;;;;;6476380;27;39615;-88
2021/06/11 14:00:47;;;;;;;3.92;1.60;;;31.20;99.90;;;;;;6476997;27;40281;-88
2021/06/11 14:04:00;;;;;;;2.85;1.73;;;31.30;99.90;;;;;;6477598;27;39832;-87
2021/06/11 14:07:14;;;;;;;3.40;1.60;;;31.30;99.90;;;;;;6477361;27;41152;-88
2021/06/11 14:10:19;;;;;;;3.65;2.28;;;31.40;99.90;;;;;;6477740;27;40350;-88
2021/06/11 14:16:44;;;;;;;3.95;2.10;;;31.40;99.90;;;;;;6453535;27;41685;-87
2021/06/11 14:19:56;;;;;;;5.55;1.55;;;31.50;99.90;;;;;;6500843;27;42790;-90
2021/06/11 14:23:25;;;;;;;24.90;18.60;;;31.70;99.90;;;;;;6485819;27;39963;-89
2021/06/11 14:26:27;;;;;;;13.50;8.00;;;31.50;99.90;;;;;;6478573;27;40242;-88
2021/06/11 14:29:31;;;;;;;16.50;12.45;;;31.30;99.90;;;;;;6476433;27;41018;-88
2021/06/11 14:32:34;;;;;;;18.58;12.02;;;31.30;99.90;;;;;;6476532;27;41207;-86
2021/06/11 14:35:49;;;;;;;4.35;2.95;;;31.40;99.90;;;;;;6476636;27;40368;-85
2021/06/11 14:39:38;;;;;;;4.37;2.17;;;31.70;99.90;;;;;;6476973;27;41937;-87
2021/06/11 14:43:09;;;;;;;3.35;1.80;;;31.60;99.90;;;;;;6454990;27;41158;-87
2021/06/11 14:46:49;;;;;;;3.83;2.10;;;31.20;99.90;;;;;;6477071;27;40559;-88
2021/06/11 14:57:26;;;;;;;19.83;15.23;;;31.30;99.90;;;;;;6468762;27;42155;-85
2021/06/11 15:54:47;;;;;;;8.15;5.15;;;30.80;99.90;;;;;;6292165;28;42193;-84
2021/06/11 16:02:35;;;;;;;11.55;7.85;;;31.00;99.90;;;;;;6286167;28;42195;-85
2021/06/11 16:24:36;;;;;;;;;;;;;;;;;;;;;
2021/06/11 16:51:59;;;;;;;5.55;3.58;;;29.40;99.90;;;;;;6155794;28;42318;-86
2021/06/11 18:28:26;;;;;;;4.28;2.50;;;26.70;99.90;;;;;;6262815;28;42125;-86
